createdAt,value
2022-10-09T00:01:19.249Z,100.00
2022-10-09T00:03:48.555Z,100.00
2022-10-09T00:06:19.325Z,100.00
2022-10-09T00:08:46.537Z,100.00
2022-10-09T00:11:17.081Z,100.00
2022-10-09T00:13:44.350Z,100.00
2022-10-09T00:16:14.116Z,100.00
2022-10-09T00:18:41.893Z,100.00
2022-10-09T00:21:19.294Z,100.00
2022-10-09T00:23:46.376Z,100.00
2022-10-09T00:26:13.857Z,100.00
2022-10-09T00:28:40.931Z,100.00
2022-10-09T00:31:09.928Z,100.00
2022-10-09T00:33:37.500Z,100.00
2022-10-09T00:36:11.307Z,100.00
2022-10-09T00:38:38.629Z,100.00
2022-10-09T00:41:06.426Z,100.00
2022-10-09T00:43:42.292Z,100.00
2022-10-09T00:46:51.815Z,100.00
2022-10-09T00:49:29.045Z,100.00
2022-10-09T00:51:59.708Z,100.00
2022-10-09T00:54:30.411Z,100.00
2022-10-09T00:56:57.567Z,100.00
2022-10-09T00:59:25.482Z,100.00
2022-10-09T01:01:52.743Z,100.00
2022-10-09T01:04:19.860Z,100.00
2022-10-09T01:06:46.786Z,100.00
2022-10-09T01:09:18.385Z,100.00
2022-10-09T01:11:58.448Z,100.00
2022-10-09T01:14:29.508Z,100.00
2022-10-09T01:17:27.539Z,100.00
2022-10-09T01:20:26.661Z,100.00
2022-10-09T01:22:56.515Z,100.00
2022-10-09T01:25:44.084Z,100.00
2022-10-09T01:28:11.674Z,100.00
2022-10-09T01:30:38.795Z,100.00
2022-10-09T01:33:06.224Z,100.00
2022-10-09T01:35:33.220Z,100.00
2022-10-09T01:38:02.301Z,100.00
2022-10-09T01:40:29.426Z,100.00
2022-10-09T01:42:56.506Z,100.00
2022-10-09T01:45:23.511Z,100.00
2022-10-09T01:47:50.621Z,100.00
2022-10-09T01:50:34.215Z,100.00
2022-10-09T01:53:06.154Z,100.00
2022-10-09T01:56:02.311Z,100.00
2022-10-09T01:58:41.177Z,100.00
2022-10-09T02:01:30.966Z,100.00
2022-10-09T02:04:01.045Z,100.00
2022-10-09T02:06:29.584Z,100.00
2022-10-09T02:08:56.913Z,100.00
2022-10-09T02:11:27.554Z,100.00
2022-10-09T02:13:57.953Z,100.00
2022-10-09T02:16:44.394Z,100.00
2022-10-09T02:19:24.907Z,100.00
2022-10-09T02:21:54.571Z,100.00
2022-10-09T02:24:23.112Z,100.00
2022-10-09T02:26:53.259Z,100.00
2022-10-09T02:29:20.764Z,100.00
2022-10-09T02:31:47.811Z,100.00
2022-10-09T02:34:18.290Z,100.00
2022-10-09T02:36:46.010Z,100.00
2022-10-09T02:39:13.430Z,100.00
2022-10-09T02:41:40.533Z,100.00
2022-10-09T02:44:07.874Z,100.00
2022-10-09T02:46:35.147Z,100.00
2022-10-09T02:49:02.420Z,100.00
2022-10-09T02:51:29.363Z,100.00
2022-10-09T02:53:56.598Z,100.00
2022-10-09T02:56:23.643Z,100.00
2022-10-09T02:58:51.018Z,100.00
2022-10-09T03:01:18.715Z,100.00
2022-10-09T03:03:46.065Z,100.00
2022-10-09T03:06:15.340Z,100.00
2022-10-09T03:08:44.901Z,100.00
2022-10-09T03:11:13.721Z,100.00
2022-10-09T03:13:41.035Z,100.00
2022-10-09T03:16:09.673Z,100.00
2022-10-09T03:18:36.790Z,100.00
2022-10-09T03:21:08.523Z,100.00
2022-10-09T03:23:35.949Z,100.00
2022-10-09T03:26:06.795Z,100.00
2022-10-09T03:28:38.196Z,100.00
2022-10-09T03:31:05.853Z,100.00
2022-10-09T03:33:33.971Z,100.00
2022-10-09T03:36:01.041Z,100.00
2022-10-09T03:38:28.176Z,100.00
2022-10-09T03:40:55.383Z,100.00
2022-10-09T03:43:22.340Z,100.00
2022-10-09T03:45:49.409Z,100.00
2022-10-09T03:48:16.405Z,100.00
2022-10-09T03:50:43.372Z,100.00
2022-10-09T03:53:11.803Z,100.00
2022-10-09T03:55:39.579Z,100.00
2022-10-09T03:58:07.287Z,100.00
2022-10-09T04:00:35.160Z,100.00
2022-10-09T04:03:02.304Z,100.00
2022-10-09T04:05:29.364Z,100.00
2022-10-09T04:07:56.428Z,100.00
2022-10-09T04:10:23.422Z,100.00
2022-10-09T04:12:50.721Z,100.00
2022-10-09T04:15:18.013Z,100.00
2022-10-09T04:17:44.968Z,100.00
2022-10-09T04:20:11.995Z,100.00
2022-10-09T04:22:38.961Z,100.00
2022-10-09T04:25:06.258Z,100.00
2022-10-09T04:27:33.268Z,100.00
2022-10-09T04:30:00.259Z,100.00
2022-10-09T04:32:27.224Z,100.00
2022-10-09T04:34:54.194Z,100.00
2022-10-09T04:37:21.180Z,100.00
2022-10-09T04:39:48.251Z,100.00
2022-10-09T04:42:15.268Z,100.00
2022-10-09T04:44:42.243Z,100.00
2022-10-09T04:47:11.265Z,100.00
2022-10-09T04:49:38.521Z,100.00
2022-10-09T04:52:05.488Z,100.00
2022-10-09T04:54:32.440Z,100.00
2022-10-09T04:56:59.432Z,100.00
2022-10-09T04:59:26.375Z,100.00
2022-10-09T05:01:53.417Z,100.00
2022-10-09T05:04:20.400Z,100.00
2022-10-09T05:06:47.365Z,100.00
2022-10-09T05:09:14.391Z,100.00
2022-10-09T05:11:42.869Z,100.00
2022-10-09T05:14:10.332Z,100.00
2022-10-09T05:17:01.047Z,100.00
2022-10-09T05:19:24.512Z,100.00
2022-10-09T05:21:51.466Z,100.00
2022-10-09T05:24:18.470Z,100.00
2022-10-09T05:26:45.540Z,100.00
2022-10-09T05:29:12.469Z,100.00
2022-10-09T05:31:39.483Z,100.00
2022-10-09T05:34:06.492Z,100.00
2022-10-09T05:36:33.456Z,100.00
2022-10-09T05:39:00.460Z,100.00
2022-10-09T05:41:28.374Z,100.00
2022-10-09T05:43:59.677Z,100.00
2022-10-09T05:46:26.833Z,100.00
2022-10-09T05:49:02.227Z,100.00
2022-10-09T05:51:31.160Z,100.00
2022-10-09T05:53:58.891Z,100.00
2022-10-09T05:56:28.621Z,100.00
2022-10-09T05:59:01.256Z,100.00
2022-10-09T06:01:31.452Z,100.00
2022-10-09T06:03:59.666Z,100.00
2022-10-09T06:06:29.466Z,100.00
2022-10-09T06:08:57.565Z,100.00
2022-10-09T06:11:27.466Z,100.00
2022-10-09T06:13:59.819Z,100.00
2022-10-09T06:16:32.512Z,100.00
2022-10-09T06:19:00.158Z,100.00
2022-10-09T06:21:27.987Z,100.00
2022-10-09T06:23:57.727Z,100.00
2022-10-09T06:26:28.057Z,100.00
2022-10-09T06:28:55.678Z,100.00
2022-10-09T06:31:27.534Z,100.00
2022-10-09T06:33:55.406Z,100.00
2022-10-09T06:36:25.715Z,100.00
2022-10-09T06:38:53.409Z,100.00
2022-10-09T06:41:25.103Z,100.00
2022-10-09T06:43:59.713Z,100.00
2022-10-09T06:46:31.032Z,100.00
2022-10-09T06:48:59.825Z,100.00
2022-10-09T06:51:27.643Z,100.00
2022-10-09T06:53:57.397Z,100.00
2022-10-09T06:56:26.592Z,100.00
2022-10-09T06:58:53.608Z,100.00
2022-10-09T07:01:23.452Z,100.00
2022-10-09T07:03:55.978Z,100.00
2022-10-09T07:06:25.297Z,100.00
2022-10-09T07:09:01.405Z,100.00
2022-10-09T07:11:39.323Z,100.00
2022-10-09T07:14:08.161Z,100.00
2022-10-09T07:16:41.619Z,100.00
2022-10-09T07:19:09.391Z,100.00
2022-10-09T07:21:38.010Z,100.00
2022-10-09T07:24:05.397Z,100.00
2022-10-09T07:26:35.475Z,100.00
2022-10-09T07:29:04.127Z,100.00
2022-10-09T07:31:31.107Z,100.00
2022-10-09T07:33:58.230Z,100.00
2022-10-09T07:36:25.291Z,100.00
2022-10-09T07:38:54.475Z,100.00
2022-10-09T07:41:23.450Z,100.00
2022-10-09T07:43:50.509Z,100.00
2022-10-09T07:46:19.393Z,100.00
2022-10-09T07:48:46.645Z,100.00
2022-10-09T07:51:26.369Z,100.00
2022-10-09T07:53:53.725Z,100.00
2022-10-09T07:56:23.332Z,99.27
2022-10-09T07:58:51.697Z,99.53
2022-10-09T08:01:20.588Z,97.88
2022-10-09T08:03:48.796Z,98.32
2022-10-09T08:06:16.356Z,98.01
2022-10-09T08:08:43.810Z,98.28
2022-10-09T08:11:12.824Z,96.48
2022-10-09T08:13:40.704Z,95.32
2022-10-09T08:16:08.063Z,95.92
2022-10-09T08:18:35.718Z,94.85
2022-10-09T08:21:06.149Z,94.68
2022-10-09T08:23:33.142Z,95.48
2022-10-09T08:26:00.553Z,94.98
2022-10-09T08:28:27.596Z,96.27
2022-10-09T08:30:54.681Z,95.59
2022-10-09T08:33:22.012Z,94.77
2022-10-09T08:35:49.972Z,93.90
2022-10-09T08:38:37.385Z,92.88
2022-10-09T08:41:26.671Z,94.34
2022-10-09T08:44:09.145Z,93.77
2022-10-09T08:47:20.976Z,93.02
2022-10-09T08:50:05.036Z,92.12
2022-10-09T08:52:41.027Z,93.53
2022-10-09T08:55:19.842Z,92.44
2022-10-09T08:57:50.983Z,93.69
2022-10-09T09:00:23.508Z,93.89
2022-10-09T09:03:09.077Z,92.15
2022-10-09T09:05:49.917Z,91.41
2022-10-09T09:08:30.249Z,90.07
2022-10-09T09:11:12.219Z,89.70
2022-10-09T09:13:54.430Z,89.46
2022-10-09T09:16:34.609Z,86.85
2022-10-09T09:19:16.528Z,85.31
2022-10-09T09:21:46.420Z,81.84
2022-10-09T09:24:37.049Z,81.11
2022-10-09T09:27:13.308Z,81.03
2022-10-09T09:29:48.473Z,79.10
2022-10-09T09:32:23.113Z,80.54
2022-10-09T09:34:50.398Z,80.13
2022-10-09T09:37:17.475Z,80.40
2022-10-09T09:42:31.765Z,79.74
2022-10-09T09:45:03.474Z,78.92
2022-10-09T09:47:38.819Z,77.83
2022-10-09T09:50:15.055Z,77.19
2022-10-09T09:52:50.828Z,76.99
2022-10-09T09:55:27.474Z,76.10
2022-10-09T09:58:04.100Z,74.97
2022-10-09T10:00:31.187Z,73.73
2022-10-09T10:03:03.895Z,74.50
2022-10-09T10:05:36.327Z,73.42
2022-10-09T10:08:32.263Z,73.06
2022-10-09T10:11:02.219Z,69.51
2022-10-09T10:13:45.948Z,71.59
2022-10-09T10:16:27.740Z,69.73
2022-10-09T10:18:57.466Z,68.66
2022-10-09T10:21:24.700Z,70.03
2022-10-09T10:24:03.562Z,71.17
2022-10-09T10:26:42.187Z,71.24
2022-10-09T10:29:20.366Z,69.63
2022-10-09T10:31:47.311Z,70.49
2022-10-09T10:34:19.929Z,70.82
2022-10-09T10:36:50.793Z,69.64
2022-10-09T10:39:26.786Z,66.59
2022-10-09T10:42:01.273Z,66.61
2022-10-09T10:44:47.260Z,67.59
2022-10-09T10:47:23.877Z,66.10
2022-10-09T10:49:51.018Z,66.53
2022-10-09T10:52:53.473Z,64.89
2022-10-09T10:55:43.377Z,65.28
2022-10-09T10:58:30.238Z,63.92
2022-10-09T11:01:32.427Z,63.61
2022-10-09T11:04:02.211Z,64.56
2022-10-09T11:06:46.612Z,63.61
2022-10-09T11:09:28.544Z,63.83
2022-10-09T11:12:15.834Z,62.60
2022-10-09T11:15:05.150Z,60.40
2022-10-09T11:17:38.254Z,61.64
2022-10-09T11:20:28.133Z,62.34
2022-10-09T11:23:11.302Z,60.72
2022-10-09T11:26:00.182Z,60.42
2022-10-09T11:28:32.930Z,62.17
2022-10-09T11:31:09.831Z,60.98
2022-10-09T11:33:45.173Z,58.80
2022-10-09T11:36:37.219Z,59.54
2022-10-09T11:39:05.861Z,59.94
2022-10-09T11:41:35.841Z,57.60
2022-10-09T11:44:17.903Z,60.54
2022-10-09T11:47:01.936Z,58.72
2022-10-09T11:49:45.204Z,58.20
2022-10-09T11:52:31.024Z,56.92
2022-10-09T11:55:08.335Z,58.23
2022-10-09T11:57:35.406Z,58.07
2022-10-09T12:00:07.056Z,58.91
2022-10-09T12:02:34.495Z,59.84
2022-10-09T12:05:01.764Z,60.08
2022-10-09T12:10:31.372Z,58.25
2022-10-09T12:13:07.136Z,58.53
2022-10-09T12:15:45.088Z,59.10
2022-10-09T12:18:27.396Z,59.75
2022-10-09T12:20:56.351Z,59.04
2022-10-09T12:23:28.041Z,59.06
2022-10-09T12:25:56.587Z,59.00
2022-10-09T12:28:34.384Z,58.98
2022-10-09T12:31:04.987Z,58.75
2022-10-09T12:33:40.070Z,59.78
2022-10-09T12:36:14.902Z,58.13
2022-10-09T12:38:42.471Z,59.49
2022-10-09T12:41:20.164Z,55.98
2022-10-09T12:43:54.201Z,56.83
2022-10-09T12:46:34.304Z,54.30
2022-10-09T12:49:04.431Z,55.79
2022-10-09T12:51:33.299Z,54.99
2022-10-09T12:54:08.507Z,55.88
2022-10-09T12:56:37.657Z,56.30
2022-10-09T12:59:07.000Z,55.24
2022-10-09T13:01:35.354Z,56.40
2022-10-09T13:04:04.858Z,56.47
2022-10-09T13:06:37.780Z,55.72
2022-10-09T13:09:08.070Z,56.39
2022-10-09T13:11:38.583Z,55.42
2022-10-09T13:14:06.162Z,57.71
2022-10-09T13:16:44.880Z,53.52
2022-10-09T13:19:25.468Z,53.01
2022-10-09T13:22:18.776Z,52.42
2022-10-09T13:24:47.351Z,53.73
2022-10-09T13:27:14.388Z,52.11
2022-10-09T13:29:44.462Z,52.24
2022-10-09T13:32:13.374Z,52.41
2022-10-09T13:34:40.625Z,52.56
2022-10-09T13:37:09.748Z,51.66
2022-10-09T13:39:36.736Z,52.63
2022-10-09T13:42:04.338Z,52.57
2022-10-09T13:44:31.418Z,54.71
2022-10-09T13:46:58.772Z,53.66
2022-10-09T13:49:25.770Z,53.95
2022-10-09T13:51:52.870Z,53.45
2022-10-09T13:54:19.844Z,54.29
2022-10-09T13:56:46.865Z,55.14
2022-10-09T13:59:13.852Z,54.55
2022-10-09T14:01:40.960Z,55.41
2022-10-09T14:04:08.044Z,54.93
2022-10-09T14:06:36.341Z,56.44
2022-10-09T14:09:06.873Z,55.88
2022-10-09T14:11:34.284Z,55.49
2022-10-09T14:14:01.407Z,56.38
2022-10-09T14:16:29.806Z,56.75
2022-10-09T14:18:59.379Z,57.53
2022-10-09T14:21:26.984Z,58.55
2022-10-09T14:23:55.123Z,58.78
2022-10-09T14:26:22.832Z,59.73
2022-10-09T14:28:50.066Z,59.85
2022-10-09T14:31:17.544Z,58.99
2022-10-09T14:33:45.815Z,59.77
2022-10-09T14:36:15.617Z,60.03
2022-10-09T14:38:42.870Z,60.53
2022-10-09T14:41:09.942Z,62.18
2022-10-09T14:43:36.886Z,62.12
2022-10-09T14:46:09.896Z,61.94
2022-10-09T14:48:36.860Z,60.78
2022-10-09T14:51:11.173Z,60.65
2022-10-09T14:53:38.118Z,61.71
2022-10-09T14:56:07.976Z,60.67
2022-10-09T14:58:36.217Z,60.43
2022-10-09T15:01:03.557Z,60.44
2022-10-09T15:03:30.897Z,60.53
2022-10-09T15:06:03.806Z,60.21
2022-10-09T15:08:33.540Z,60.30
2022-10-09T15:11:01.070Z,61.49
2022-10-09T15:13:28.256Z,61.29
2022-10-09T15:16:07.902Z,61.84
2022-10-09T15:18:34.958Z,62.64
2022-10-09T15:21:02.138Z,61.31
2022-10-09T15:23:29.656Z,62.46
2022-10-09T15:25:58.705Z,63.70
2022-10-09T15:28:25.899Z,64.40
2022-10-09T15:31:00.186Z,65.87
2022-10-09T15:33:27.343Z,65.81
2022-10-09T15:35:54.595Z,65.17
2022-10-09T15:38:24.049Z,66.25
2022-10-09T15:40:55.891Z,65.86
2022-10-09T15:43:24.023Z,66.26
2022-10-09T15:45:51.864Z,66.98
2022-10-09T15:48:21.857Z,68.37
2022-10-09T15:50:49.973Z,72.23
2022-10-09T15:53:18.835Z,71.84
2022-10-09T15:55:47.887Z,71.80
2022-10-09T15:58:15.953Z,72.58
2022-10-09T16:00:45.826Z,72.81
2022-10-09T16:03:13.842Z,75.57
2022-10-09T16:05:47.259Z,77.48
2022-10-09T16:08:15.819Z,77.86
2022-10-09T16:10:49.216Z,78.61
2022-10-09T16:13:16.760Z,79.72
2022-10-09T16:15:45.833Z,80.51
2022-10-09T16:18:13.765Z,81.15
2022-10-09T16:20:41.068Z,82.85
2022-10-09T16:23:09.798Z,82.73
2022-10-09T16:25:38.917Z,83.40
2022-10-09T16:28:07.458Z,83.75
2022-10-09T16:30:42.750Z,84.26
2022-10-09T16:33:12.919Z,85.17
2022-10-09T16:35:40.246Z,86.04
2022-10-09T16:38:07.306Z,87.35
2022-10-09T16:41:01.449Z,88.04
2022-10-09T16:43:22.277Z,88.77
2022-10-09T16:45:50.251Z,89.04
2022-10-09T16:48:17.225Z,89.44
2022-10-09T16:50:44.244Z,89.49
2022-10-09T16:53:11.288Z,89.66
2022-10-09T16:55:38.239Z,90.02
2022-10-09T16:58:05.267Z,90.25
2022-10-09T17:00:33.255Z,90.40
2022-10-09T17:03:00.225Z,90.80
2022-10-09T17:05:27.195Z,90.56
2022-10-09T17:07:54.430Z,90.54
2022-10-09T17:10:21.412Z,90.38
2022-10-09T17:12:48.436Z,90.85
2022-10-09T17:15:15.607Z,90.70
2022-10-09T17:17:42.599Z,91.22
2022-10-09T17:20:09.846Z,91.80
2022-10-09T17:22:36.822Z,91.24
2022-10-09T17:25:04.201Z,91.88
2022-10-09T17:27:31.163Z,91.63
2022-10-09T17:29:58.136Z,91.47
2022-10-09T17:32:25.106Z,91.84
2022-10-09T17:34:52.060Z,91.73
2022-10-09T17:37:19.011Z,91.98
2022-10-09T17:39:51.133Z,92.47
2022-10-09T17:42:19.134Z,92.62
2022-10-09T17:44:46.122Z,93.68
2022-10-09T17:47:13.263Z,93.25
2022-10-09T17:49:40.237Z,93.77
2022-10-09T17:52:07.201Z,94.07
2022-10-09T17:54:34.140Z,93.81
2022-10-09T17:57:01.113Z,94.25
2022-10-09T17:59:28.187Z,94.48
2022-10-09T18:01:55.132Z,95.59
2022-10-09T18:04:22.143Z,95.59
2022-10-09T18:06:49.196Z,95.48
2022-10-09T18:09:16.353Z,95.92
2022-10-09T18:11:43.496Z,95.74
2022-10-09T18:14:10.609Z,96.01
2022-10-09T18:16:38.370Z,96.26
2022-10-09T18:19:09.736Z,95.74
2022-10-09T18:21:37.059Z,96.18
2022-10-09T18:24:04.207Z,96.30
2022-10-09T18:26:32.254Z,97.04
2022-10-09T18:29:00.392Z,97.28
2022-10-09T18:31:28.580Z,97.08
2022-10-09T18:33:59.030Z,97.93
2022-10-09T18:36:29.202Z,98.02
2022-10-09T18:39:00.423Z,98.13
2022-10-09T18:41:27.489Z,99.30
2022-10-09T18:43:57.024Z,99.40
2022-10-09T18:46:25.524Z,99.03
2022-10-09T18:48:54.179Z,99.26
2022-10-09T18:51:24.212Z,99.87
2022-10-09T18:53:57.640Z,99.63
2022-10-09T18:56:24.893Z,100.00
2022-10-09T18:58:52.763Z,99.96
2022-10-09T19:01:19.913Z,100.00
2022-10-09T19:03:49.926Z,100.00
2022-10-09T19:06:18.895Z,100.00
2022-10-09T19:08:46.903Z,99.85
2022-10-09T19:11:13.971Z,100.00
2022-10-09T19:13:44.728Z,100.00
2022-10-09T19:16:11.791Z,100.00
2022-10-09T19:18:38.990Z,100.00
2022-10-09T19:21:06.129Z,100.00
2022-10-09T19:23:33.093Z,100.00
2022-10-09T19:26:00.432Z,100.00
2022-10-09T19:28:28.958Z,100.00
2022-10-09T19:30:56.153Z,100.00
2022-10-09T19:33:23.197Z,100.00
2022-10-09T19:35:51.318Z,100.00
2022-10-09T19:38:19.132Z,100.00
2022-10-09T19:40:46.204Z,100.00
2022-10-09T19:43:14.500Z,100.00
2022-10-09T19:45:41.552Z,100.00
2022-10-09T19:48:09.097Z,100.00
2022-10-09T19:50:46.214Z,100.00
2022-10-09T19:53:13.582Z,100.00
2022-10-09T19:55:40.676Z,100.00
2022-10-09T19:58:07.736Z,100.00
2022-10-09T20:00:34.735Z,100.00
2022-10-09T20:03:01.713Z,100.00
2022-10-09T20:05:28.679Z,100.00
2022-10-09T20:07:55.632Z,100.00
2022-10-09T20:10:22.558Z,100.00
2022-10-09T20:12:49.765Z,100.00
2022-10-09T20:15:17.194Z,100.00
2022-10-09T20:17:46.080Z,100.00
2022-10-09T20:20:13.048Z,100.00
2022-10-09T20:22:40.640Z,100.00
2022-10-09T20:25:08.154Z,100.00
2022-10-09T20:27:35.135Z,100.00
2022-10-09T20:30:02.115Z,100.00
2022-10-09T20:32:29.072Z,100.00
2022-10-09T20:34:56.081Z,100.00
2022-10-09T20:37:23.048Z,100.00
2022-10-09T20:39:50.624Z,100.00
2022-10-09T20:42:17.611Z,100.00
2022-10-09T20:44:44.724Z,100.00
2022-10-09T20:47:11.701Z,100.00
2022-10-09T20:49:38.702Z,100.00
2022-10-09T20:52:05.693Z,100.00
2022-10-09T20:54:32.655Z,100.00
2022-10-09T20:57:01.574Z,100.00
2022-10-09T20:59:28.534Z,100.00
2022-10-09T21:01:55.489Z,100.00
2022-10-09T21:04:22.462Z,100.00
2022-10-09T21:06:49.421Z,100.00
2022-10-09T21:09:16.411Z,100.00
2022-10-09T21:11:43.355Z,100.00
2022-10-09T21:14:10.358Z,100.00
2022-10-09T21:16:37.468Z,100.00
2022-10-09T21:19:06.556Z,100.00
2022-10-09T21:21:34.130Z,100.00
2022-10-09T21:24:01.409Z,100.00
2022-10-09T21:26:29.928Z,100.00
2022-10-09T21:28:59.581Z,100.00
2022-10-09T21:31:29.613Z,100.00
2022-10-09T21:33:58.076Z,100.00
2022-10-09T21:36:31.080Z,100.00
2022-10-09T21:38:58.142Z,100.00
2022-10-09T21:41:25.524Z,100.00
2022-10-09T21:43:52.483Z,100.00
2022-10-09T21:46:19.528Z,100.00
2022-10-09T21:48:46.556Z,100.00
2022-10-09T21:51:13.509Z,100.00
2022-10-09T21:53:40.511Z,100.00
2022-10-09T21:56:07.645Z,100.00
2022-10-09T21:58:34.640Z,100.00
2022-10-09T22:01:02.568Z,100.00
2022-10-09T22:03:31.470Z,100.00
2022-10-09T22:05:58.809Z,100.00
2022-10-09T22:08:26.261Z,100.00
2022-10-09T22:10:53.495Z,100.00
2022-10-09T22:13:20.586Z,100.00
2022-10-09T22:15:51.101Z,100.00
2022-10-09T22:18:18.877Z,100.00
2022-10-09T22:20:48.295Z,100.00
2022-10-09T22:23:18.352Z,100.00
2022-10-09T22:25:55.794Z,100.00
2022-10-09T22:28:22.999Z,100.00
2022-10-09T22:31:04.285Z,100.00
2022-10-09T22:33:31.557Z,100.00
2022-10-09T22:36:05.778Z,100.00
2022-10-09T22:38:32.857Z,100.00
2022-10-09T22:41:29.633Z,100.00
2022-10-09T22:43:58.939Z,100.00
2022-10-09T22:46:31.575Z,100.00
2022-10-09T22:48:59.371Z,100.00
2022-10-09T22:51:29.012Z,100.00
2022-10-09T22:53:57.889Z,100.00
2022-10-09T22:56:30.757Z,100.00
2022-10-09T22:58:58.422Z,100.00
2022-10-09T23:01:28.463Z,100.00
2022-10-09T23:03:56.576Z,100.00
2022-10-09T23:06:24.092Z,100.00
2022-10-09T23:08:51.220Z,100.00
2022-10-09T23:11:19.999Z,100.00
2022-10-09T23:13:47.605Z,100.00
2022-10-09T23:16:15.198Z,100.00
2022-10-09T23:18:42.245Z,100.00
2022-10-09T23:21:12.205Z,100.00
2022-10-09T23:23:39.928Z,100.00
2022-10-09T23:26:13.012Z,100.00
2022-10-09T23:28:40.601Z,100.00
2022-10-09T23:31:13.675Z,100.00
2022-10-09T23:33:42.477Z,100.00
2022-10-09T23:36:12.397Z,100.00
2022-10-09T23:38:39.723Z,100.00
2022-10-09T23:41:13.008Z,100.00
2022-10-09T23:43:41.616Z,100.00
2022-10-09T23:46:12.131Z,100.00
2022-10-09T23:48:39.323Z,100.00
2022-10-09T23:51:06.683Z,100.00
2022-10-09T23:53:34.610Z,100.00
2022-10-09T23:56:05.433Z,100.00
2022-10-09T23:58:32.474Z,100.00
